sensor_id;sensor_type;location;lat;lon;timestamp;temperature;humidity
44747;DHT22;30472;49.490;10.972;2023-04-01T00:00:20;8.40;99.90
44747;DHT22;30472;49.490;10.972;2023-04-01T00:02:46;8.40;99.90
44747;DHT22;30472;49.490;10.972;2023-04-01T00:05:12;8.50;99.90
44747;DHT22;30472;49.490;10.972;2023-04-01T00:07:39;8.50;99.90
44747;DHT22;30472;49.490;10.972;2023-04-01T00:10:07;8.60;99.90
44747;DHT22;30472;49.490;10.972;2023-04-01T00:12:33;8.70;99.90
44747;DHT22;30472;49.490;10.972;2023-04-01T00:15:01;8.70;99.90
44747;DHT22;30472;49.490;10.972;2023-04-01T00:17:27;8.70;99.90
44747;DHT22;30472;49.490;10.972;2023-04-01T00:19:55;8.70;99.90
44747;DHT22;30472;49.490;10.972;2023-04-01T00:22:20;8.80;99.90
44747;DHT22;30472;49.490;10.972;2023-04-01T00:24:46;8.80;99.90
44747;DHT22;30472;49.490;10.972;2023-04-01T00:27:12;8.70;99.90
44747;DHT22;30472;49.490;10.972;2023-04-01T00:29:37;8.80;99.90
44747;DHT22;30472;49.490;10.972;2023-04-01T00:32:03;8.90;99.90
44747;DHT22;30472;49.490;10.972;2023-04-01T00:34:28;8.90;99.90
44747;DHT22;30472;49.490;10.972;2023-04-01T00:36:54;8.90;99.90
44747;DHT22;30472;49.490;10.972;2023-04-01T00:39:20;8.90;99.90
44747;DHT22;30472;49.490;10.972;2023-04-01T00:41:46;8.90;99.90
44747;DHT22;30472;49.490;10.972;2023-04-01T00:44:23;9.00;99.90
44747;DHT22;30472;49.490;10.972;2023-04-01T00:46:49;9.00;99.90
44747;DHT22;30472;49.490;10.972;2023-04-01T00:49:16;9.00;99.90
44747;DHT22;30472;49.490;10.972;2023-04-01T00:51:45;9.00;99.90
44747;DHT22;30472;49.490;10.972;2023-04-01T00:54:12;8.90;99.90
44747;DHT22;30472;49.490;10.972;2023-04-01T00:57:02;9.00;99.90
44747;DHT22;30472;49.490;10.972;2023-04-01T00:59:33;9.00;99.90
44747;DHT22;30472;49.490;10.972;2023-04-01T01:02:04;9.00;99.90
44747;DHT22;30472;49.490;10.972;2023-04-01T01:04:33;9.00;99.90
44747;DHT22;30472;49.490;10.972;2023-04-01T01:15:11;9.00;99.90
44747;DHT22;30472;49.490;10.972;2023-04-01T01:28:21;9.00;99.90
44747;DHT22;30472;49.490;10.972;2023-04-01T01:31:18;8.90;99.90
44747;DHT22;30472;49.490;10.972;2023-04-01T01:33:55;9.00;99.90
44747;DHT22;30472;49.490;10.972;2023-04-01T01:36:28;8.90;99.90
44747;DHT22;30472;49.490;10.972;2023-04-01T01:38:56;8.90;99.90
44747;DHT22;30472;49.490;10.972;2023-04-01T01:41:25;8.90;99.90
44747;DHT22;30472;49.490;10.972;2023-04-01T01:43:54;8.90;99.90
44747;DHT22;30472;49.490;10.972;2023-04-01T01:46:24;8.90;99.90
44747;DHT22;30472;49.490;10.972;2023-04-01T01:48:50;8.80;99.90
44747;DHT22;30472;49.490;10.972;2023-04-01T01:51:18;8.80;99.90
44747;DHT22;30472;49.490;10.972;2023-04-01T01:53:45;8.80;99.90
44747;DHT22;30472;49.490;10.972;2023-04-01T01:56:11;8.90;99.90
44747;DHT22;30472;49.490;10.972;2023-04-01T01:58:47;8.90;99.90
44747;DHT22;30472;49.490;10.972;2023-04-01T02:01:17;8.90;99.90
44747;DHT22;30472;49.490;10.972;2023-04-01T02:03:45;8.90;99.90
44747;DHT22;30472;49.490;10.972;2023-04-01T02:06:15;8.90;99.90
44747;DHT22;30472;49.490;10.972;2023-04-01T02:11:16;8.90;99.90
44747;DHT22;30472;49.490;10.972;2023-04-01T02:16:20;8.90;99.90
44747;DHT22;30472;49.490;10.972;2023-04-01T02:18:48;8.90;99.90
44747;DHT22;30472;49.490;10.972;2023-04-01T02:21:17;8.90;99.90
44747;DHT22;30472;49.490;10.972;2023-04-01T02:23:44;8.90;99.90
44747;DHT22;30472;49.490;10.972;2023-04-01T02:26:11;8.90;99.90
44747;DHT22;30472;49.490;10.972;2023-04-01T02:28:38;8.90;99.90
44747;DHT22;30472;49.490;10.972;2023-04-01T02:31:06;8.90;99.90
44747;DHT22;30472;49.490;10.972;2023-04-01T02:33:33;8.90;99.90
44747;DHT22;30472;49.490;10.972;2023-04-01T02:35:59;8.90;99.90
44747;DHT22;30472;49.490;10.972;2023-04-01T02:38:25;8.90;99.90
44747;DHT22;30472;49.490;10.972;2023-04-01T02:40:57;8.90;99.90
44747;DHT22;30472;49.490;10.972;2023-04-01T02:43:24;8.90;99.90
44747;DHT22;30472;49.490;10.972;2023-04-01T02:45:49;8.90;99.90
44747;DHT22;30472;49.490;10.972;2023-04-01T02:48:15;8.90;99.90
44747;DHT22;30472;49.490;10.972;2023-04-01T02:50:41;8.90;99.90
44747;DHT22;30472;49.490;10.972;2023-04-01T02:53:06;8.90;99.90
44747;DHT22;30472;49.490;10.972;2023-04-01T02:55:33;8.90;99.90
44747;DHT22;30472;49.490;10.972;2023-04-01T02:57:58;8.90;99.90
44747;DHT22;30472;49.490;10.972;2023-04-01T03:00:25;9.00;99.90
44747;DHT22;30472;49.490;10.972;2023-04-01T03:02:51;9.00;99.90
44747;DHT22;30472;49.490;10.972;2023-04-01T03:05:16;8.90;99.90
44747;DHT22;30472;49.490;10.972;2023-04-01T03:07:42;8.90;99.90
44747;DHT22;30472;49.490;10.972;2023-04-01T03:10:08;8.80;99.90
44747;DHT22;30472;49.490;10.972;2023-04-01T03:12:33;8.80;99.90
44747;DHT22;30472;49.490;10.972;2023-04-01T03:14:59;8.90;99.90
44747;DHT22;30472;49.490;10.972;2023-04-01T03:17:24;8.80;99.90
44747;DHT22;30472;49.490;10.972;2023-04-01T03:19:50;8.80;99.90
44747;DHT22;30472;49.490;10.972;2023-04-01T03:22:16;8.80;99.90
44747;DHT22;30472;49.490;10.972;2023-04-01T03:24:41;8.80;99.90
44747;DHT22;30472;49.490;10.972;2023-04-01T03:27:07;8.80;99.90
44747;DHT22;30472;49.490;10.972;2023-04-01T03:29:32;8.80;99.90
44747;DHT22;30472;49.490;10.972;2023-04-01T03:31:58;8.80;99.90
44747;DHT22;30472;49.490;10.972;2023-04-01T03:34:24;8.80;99.90
44747;DHT22;30472;49.490;10.972;2023-04-01T03:36:51;8.80;99.90
44747;DHT22;30472;49.490;10.972;2023-04-01T03:39:16;8.70;99.90
44747;DHT22;30472;49.490;10.972;2023-04-01T03:41:44;8.70;99.90
44747;DHT22;30472;49.490;10.972;2023-04-01T03:44:10;8.70;99.90
44747;DHT22;30472;49.490;10.972;2023-04-01T03:46:36;8.70;99.90
44747;DHT22;30472;49.490;10.972;2023-04-01T03:49:02;8.70;99.90
44747;DHT22;30472;49.490;10.972;2023-04-01T03:51:28;8.70;99.90
44747;DHT22;30472;49.490;10.972;2023-04-01T03:53:54;8.70;99.90
44747;DHT22;30472;49.490;10.972;2023-04-01T03:56:19;8.70;99.90
44747;DHT22;30472;49.490;10.972;2023-04-01T03:58:45;8.80;99.90
44747;DHT22;30472;49.490;10.972;2023-04-01T04:01:29;8.70;99.90
44747;DHT22;30472;49.490;10.972;2023-04-01T04:03:55;8.80;99.90
44747;DHT22;30472;49.490;10.972;2023-04-01T04:06:22;8.70;99.90
44747;DHT22;30472;49.490;10.972;2023-04-01T04:08:49;8.80;99.90
44747;DHT22;30472;49.490;10.972;2023-04-01T04:11:15;8.80;99.90
44747;DHT22;30472;49.490;10.972;2023-04-01T04:13:41;8.80;99.90
44747;DHT22;30472;49.490;10.972;2023-04-01T04:16:07;8.80;99.90
44747;DHT22;30472;49.490;10.972;2023-04-01T04:18:33;8.70;99.90
44747;DHT22;30472;49.490;10.972;2023-04-01T04:20:59;8.80;99.90
44747;DHT22;30472;49.490;10.972;2023-04-01T04:23:25;8.80;99.90
44747;DHT22;30472;49.490;10.972;2023-04-01T04:26:00;8.80;99.90
44747;DHT22;30472;49.490;10.972;2023-04-01T04:28:26;8.80;99.90
44747;DHT22;30472;49.490;10.972;2023-04-01T04:30:53;8.80;99.90
44747;DHT22;30472;49.490;10.972;2023-04-01T04:33:19;8.70;99.90
44747;DHT22;30472;49.490;10.972;2023-04-01T04:35:44;8.80;99.90
44747;DHT22;30472;49.490;10.972;2023-04-01T04:38:10;8.70;99.90
44747;DHT22;30472;49.490;10.972;2023-04-01T04:40:37;8.70;99.90
44747;DHT22;30472;49.490;10.972;2023-04-01T04:43:03;8.70;99.90
44747;DHT22;30472;49.490;10.972;2023-04-01T04:45:28;8.70;99.90
44747;DHT22;30472;49.490;10.972;2023-04-01T04:47:54;8.70;99.90
44747;DHT22;30472;49.490;10.972;2023-04-01T04:50:20;8.70;99.90
44747;DHT22;30472;49.490;10.972;2023-04-01T04:52:45;8.60;99.90
44747;DHT22;30472;49.490;10.972;2023-04-01T04:55:11;8.60;99.90
44747;DHT22;30472;49.490;10.972;2023-04-01T04:57:37;8.60;99.90
44747;DHT22;30472;49.490;10.972;2023-04-01T05:00:02;8.60;99.90
44747;DHT22;30472;49.490;10.972;2023-04-01T05:02:28;8.60;99.90
44747;DHT22;30472;49.490;10.972;2023-04-01T05:04:54;8.60;99.90
44747;DHT22;30472;49.490;10.972;2023-04-01T05:07:20;8.60;99.90
44747;DHT22;30472;49.490;10.972;2023-04-01T05:09:45;8.50;99.90
44747;DHT22;30472;49.490;10.972;2023-04-01T05:12:12;8.50;99.90
44747;DHT22;30472;49.490;10.972;2023-04-01T05:14:38;8.50;99.90
44747;DHT22;30472;49.490;10.972;2023-04-01T05:17:08;8.50;99.90
44747;DHT22;30472;49.490;10.972;2023-04-01T05:19:34;8.50;99.90
44747;DHT22;30472;49.490;10.972;2023-04-01T05:21:59;8.50;99.90
44747;DHT22;30472;49.490;10.972;2023-04-01T05:24:25;8.50;99.90
44747;DHT22;30472;49.490;10.972;2023-04-01T05:26:50;8.50;99.90
44747;DHT22;30472;49.490;10.972;2023-04-01T05:29:16;8.50;99.90
44747;DHT22;30472;49.490;10.972;2023-04-01T05:31:41;8.50;99.90
44747;DHT22;30472;49.490;10.972;2023-04-01T05:34:07;8.50;99.90
44747;DHT22;30472;49.490;10.972;2023-04-01T05:36:33;8.50;99.90
44747;DHT22;30472;49.490;10.972;2023-04-01T05:38:59;8.50;99.90
44747;DHT22;30472;49.490;10.972;2023-04-01T05:41:25;8.60;99.90
44747;DHT22;30472;49.490;10.972;2023-04-01T05:43:50;8.60;99.90
44747;DHT22;30472;49.490;10.972;2023-04-01T05:46:16;8.60;99.90
44747;DHT22;30472;49.490;10.972;2023-04-01T05:48:41;8.60;99.90
44747;DHT22;30472;49.490;10.972;2023-04-01T05:51:13;8.60;99.90
44747;DHT22;30472;49.490;10.972;2023-04-01T05:53:39;8.60;99.90
44747;DHT22;30472;49.490;10.972;2023-04-01T05:56:05;8.70;99.90
44747;DHT22;30472;49.490;10.972;2023-04-01T05:58:30;8.60;99.90
44747;DHT22;30472;49.490;10.972;2023-04-01T06:01:07;8.70;99.90
44747;DHT22;30472;49.490;10.972;2023-04-01T06:03:33;8.80;99.90
44747;DHT22;30472;49.490;10.972;2023-04-01T06:05:59;8.70;99.90
44747;DHT22;30472;49.490;10.972;2023-04-01T06:08:26;8.70;99.90
44747;DHT22;30472;49.490;10.972;2023-04-01T06:16:53;8.80;99.90
44747;DHT22;30472;49.490;10.972;2023-04-01T06:22:22;8.80;99.90
44747;DHT22;30472;49.490;10.972;2023-04-01T06:25:17;8.90;99.90
44747;DHT22;30472;49.490;10.972;2023-04-01T06:30:51;9.10;99.90
44747;DHT22;30472;49.490;10.972;2023-04-01T06:33:30;9.00;99.90
44747;DHT22;30472;49.490;10.972;2023-04-01T06:36:10;9.00;99.90
44747;DHT22;30472;49.490;10.972;2023-04-01T06:44:16;9.40;99.90
44747;DHT22;30472;49.490;10.972;2023-04-01T06:47:07;9.40;99.90
44747;DHT22;30472;49.490;10.972;2023-04-01T06:49:55;9.50;99.90
44747;DHT22;30472;49.490;10.972;2023-04-01T06:53:09;9.60;99.90
44747;DHT22;30472;49.490;10.972;2023-04-01T06:55:43;9.80;99.90
44747;DHT22;30472;49.490;10.972;2023-04-01T06:58:34;9.60;99.90
44747;DHT22;30472;49.490;10.972;2023-04-01T07:01:04;9.60;99.90
44747;DHT22;30472;49.490;10.972;2023-04-01T07:03:50;9.60;99.90
44747;DHT22;30472;49.490;10.972;2023-04-01T07:06:30;9.70;99.90
44747;DHT22;30472;49.490;10.972;2023-04-01T07:08:58;9.80;99.90
44747;DHT22;30472;49.490;10.972;2023-04-01T07:11:37;9.80;99.90
44747;DHT22;30472;49.490;10.972;2023-04-01T07:17:00;10.00;99.90
44747;DHT22;30472;49.490;10.972;2023-04-01T07:19:36;10.00;99.90
44747;DHT22;30472;49.490;10.972;2023-04-01T07:22:21;10.10;99.90
44747;DHT22;30472;49.490;10.972;2023-04-01T07:24:53;10.10;99.90
44747;DHT22;30472;49.490;10.972;2023-04-01T07:27:19;10.00;99.90
44747;DHT22;30472;49.490;10.972;2023-04-01T07:29:45;10.10;99.90
44747;DHT22;30472;49.490;10.972;2023-04-01T07:32:19;10.10;99.90
44747;DHT22;30472;49.490;10.972;2023-04-01T07:43:05;10.40;99.90
44747;DHT22;30472;49.490;10.972;2023-04-01T07:45:57;10.40;99.90
44747;DHT22;30472;49.490;10.972;2023-04-01T07:48:44;10.50;99.90
44747;DHT22;30472;49.490;10.972;2023-04-01T07:54:18;10.50;99.90
44747;DHT22;30472;49.490;10.972;2023-04-01T08:14:21;10.70;99.90
44747;DHT22;30472;49.490;10.972;2023-04-01T08:17:10;10.70;99.90
44747;DHT22;30472;49.490;10.972;2023-04-01T08:19:59;10.70;99.90
44747;DHT22;30472;49.490;10.972;2023-04-01T08:23:13;10.80;99.90
44747;DHT22;30472;49.490;10.972;2023-04-01T08:28:44;10.90;99.90
44747;DHT22;30472;49.490;10.972;2023-04-01T08:31:25;10.80;99.90
44747;DHT22;30472;49.490;10.972;2023-04-01T08:33:54;11.00;99.90
44747;DHT22;30472;49.490;10.972;2023-04-01T08:36:22;11.00;99.90
44747;DHT22;30472;49.490;10.972;2023-04-01T08:39:08;11.10;99.90
44747;DHT22;30472;49.490;10.972;2023-04-01T08:44:52;11.10;99.90
44747;DHT22;30472;49.490;10.972;2023-04-01T08:47:56;11.00;99.90
44747;DHT22;30472;49.490;10.972;2023-04-01T08:59:16;11.20;99.90
44747;DHT22;30472;49.490;10.972;2023-04-01T09:10:34;11.00;99.90
44747;DHT22;30472;49.490;10.972;2023-04-01T09:18:34;11.20;99.90
44747;DHT22;30472;49.490;10.972;2023-04-01T09:21:28;11.30;99.90
44747;DHT22;30472;49.490;10.972;2023-04-01T09:27:10;10.90;99.90
44747;DHT22;30472;49.490;10.972;2023-04-01T09:35:22;11.00;99.90
44747;DHT22;30472;49.490;10.972;2023-04-01T09:38:26;11.00;99.90
44747;DHT22;30472;49.490;10.972;2023-04-01T09:46:03;10.80;99.90
44747;DHT22;30472;49.490;10.972;2023-04-01T09:51:40;11.00;99.90
44747;DHT22;30472;49.490;10.972;2023-04-01T09:57:18;10.80;99.90
44747;DHT22;30472;49.490;10.972;2023-04-01T10:02:42;10.30;99.90
44747;DHT22;30472;49.490;10.972;2023-04-01T10:08:27;10.30;99.90
44747;DHT22;30472;49.490;10.972;2023-04-01T10:14:16;10.30;99.90
44747;DHT22;30472;49.490;10.972;2023-04-01T10:28:12;10.30;99.90
44747;DHT22;30472;49.490;10.972;2023-04-01T10:31:18;10.30;99.90
44747;DHT22;30472;49.490;10.972;2023-04-01T10:37:32;10.00;99.90
44747;DHT22;30472;49.490;10.972;2023-04-01T10:48:13;9.80;99.90
44747;DHT22;30472;49.490;10.972;2023-04-01T10:54:13;9.80;99.90
44747;DHT22;30472;49.490;10.972;2023-04-01T10:59:45;10.00;99.90
44747;DHT22;30472;49.490;10.972;2023-04-01T11:05:14;9.80;99.90
44747;DHT22;30472;49.490;10.972;2023-04-01T11:25:41;9.70;99.90
44747;DHT22;30472;49.490;10.972;2023-04-01T11:39:44;9.50;99.90
44747;DHT22;30472;49.490;10.972;2023-04-01T11:45:43;9.50;99.90
44747;DHT22;30472;49.490;10.972;2023-04-01T11:56:51;9.70;99.90
44747;DHT22;30472;49.490;10.972;2023-04-01T12:03:10;9.70;99.90
44747;DHT22;30472;49.490;10.972;2023-04-01T12:08:13;9.90;99.90
44747;DHT22;30472;49.490;10.972;2023-04-01T12:11:00;10.00;99.90
44747;DHT22;30472;49.490;10.972;2023-04-01T12:13:38;10.20;99.90
44747;DHT22;30472;49.490;10.972;2023-04-01T12:16:09;10.30;99.90
44747;DHT22;30472;49.490;10.972;2023-04-01T12:18:59;10.40;99.90
44747;DHT22;30472;49.490;10.972;2023-04-01T12:21:37;10.20;99.90
44747;DHT22;30472;49.490;10.972;2023-04-01T12:24:23;10.40;99.90
44747;DHT22;30472;49.490;10.972;2023-04-01T12:27:25;10.40;99.90
44747;DHT22;30472;49.490;10.972;2023-04-01T12:30:42;10.30;99.90
44747;DHT22;30472;49.490;10.972;2023-04-01T12:32:44;10.20;99.90
44747;DHT22;30472;49.490;10.972;2023-04-01T12:35:45;10.10;99.90
44747;DHT22;30472;49.490;10.972;2023-04-01T12:41:29;10.10;99.90
44747;DHT22;30472;49.490;10.972;2023-04-01T12:44:10;10.30;99.90
44747;DHT22;30472;49.490;10.972;2023-04-01T12:52:26;10.30;99.90
44747;DHT22;30472;49.490;10.972;2023-04-01T12:58:23;10.40;99.90
44747;DHT22;30472;49.490;10.972;2023-04-01T13:01:26;10.30;99.90
44747;DHT22;30472;49.490;10.972;2023-04-01T13:12:50;10.50;99.90
44747;DHT22;30472;49.490;10.972;2023-04-01T13:17:58;10.60;99.90
44747;DHT22;30472;49.490;10.972;2023-04-01T13:28:32;10.60;99.90
44747;DHT22;30472;49.490;10.972;2023-04-01T13:31:25;10.60;99.90
44747;DHT22;30472;49.490;10.972;2023-04-01T13:42:41;10.80;99.90
44747;DHT22;30472;49.490;10.972;2023-04-01T13:45:29;10.90;99.90
44747;DHT22;30472;49.490;10.972;2023-04-01T13:51:29;11.00;99.90
44747;DHT22;30472;49.490;10.972;2023-04-01T13:54:17;11.00;99.90
44747;DHT22;30472;49.490;10.972;2023-04-01T14:02:07;10.40;99.90
44747;DHT22;30472;49.490;10.972;2023-04-01T14:13:52;10.50;99.90
44747;DHT22;30472;49.490;10.972;2023-04-01T14:16:29;10.30;99.90
44747;DHT22;30472;49.490;10.972;2023-04-01T14:19:32;10.20;99.90
44747;DHT22;30472;49.490;10.972;2023-04-01T14:24:42;10.10;99.90
44747;DHT22;30472;49.490;10.972;2023-04-01T14:36:08;10.10;99.90
44747;DHT22;30472;49.490;10.972;2023-04-01T14:44:10;10.10;99.90
44747;DHT22;30472;49.490;10.972;2023-04-01T14:47:08;10.00;99.90
44747;DHT22;30472;49.490;10.972;2023-04-01T14:49:40;10.00;99.90
44747;DHT22;30472;49.490;10.972;2023-04-01T14:52:29;10.00;99.90
44747;DHT22;30472;49.490;10.972;2023-04-01T14:54:56;9.90;99.90
44747;DHT22;30472;49.490;10.972;2023-04-01T14:57:28;10.00;99.90
44747;DHT22;30472;49.490;10.972;2023-04-01T15:08:25;10.20;99.90
44747;DHT22;30472;49.490;10.972;2023-04-01T15:13:54;10.30;99.90
44747;DHT22;30472;49.490;10.972;2023-04-01T15:16:51;10.40;99.90
44747;DHT22;30472;49.490;10.972;2023-04-01T15:20:01;10.40;99.90
44747;DHT22;30472;49.490;10.972;2023-04-01T15:22:41;10.20;99.90
44747;DHT22;30472;49.490;10.972;2023-04-01T15:33:32;10.00;99.90
44747;DHT22;30472;49.490;10.972;2023-04-01T15:36:38;10.10;99.90
44747;DHT22;30472;49.490;10.972;2023-04-01T15:42:31;10.20;99.90
44747;DHT22;30472;49.490;10.972;2023-04-01T15:47:45;10.00;99.90
44747;DHT22;30472;49.490;10.972;2023-04-01T15:53:14;10.00;99.90
44747;DHT22;30472;49.490;10.972;2023-04-01T16:01:07;9.80;99.90
44747;DHT22;30472;49.490;10.972;2023-04-01T16:03:51;9.80;99.90
44747;DHT22;30472;49.490;10.972;2023-04-01T16:06:40;9.70;99.90
44747;DHT22;30472;49.490;10.972;2023-04-01T16:12:17;9.60;99.90
44747;DHT22;30472;49.490;10.972;2023-04-01T16:23:24;9.60;99.90
44747;DHT22;30472;49.490;10.972;2023-04-01T16:26:09;9.60;99.90
44747;DHT22;30472;49.490;10.972;2023-04-01T16:34:14;9.60;99.90
44747;DHT22;30472;49.490;10.972;2023-04-01T16:37:00;9.50;99.90
44747;DHT22;30472;49.490;10.972;2023-04-01T16:39:53;9.50;99.90
44747;DHT22;30472;49.490;10.972;2023-04-01T16:45:47;9.50;99.90
44747;DHT22;30472;49.490;10.972;2023-04-01T16:48:44;9.50;99.90
44747;DHT22;30472;49.490;10.972;2023-04-01T16:51:15;9.40;99.90
44747;DHT22;30472;49.490;10.972;2023-04-01T16:53:47;9.40;99.90
44747;DHT22;30472;49.490;10.972;2023-04-01T16:56:22;9.40;99.90
44747;DHT22;30472;49.490;10.972;2023-04-01T17:03:46;9.30;99.90
44747;DHT22;30472;49.490;10.972;2023-04-01T17:06:25;9.30;99.90
44747;DHT22;30472;49.490;10.972;2023-04-01T17:15:29;9.20;99.90
44747;DHT22;30472;49.490;10.972;2023-04-01T17:20:50;9.20;99.90
44747;DHT22;30472;49.490;10.972;2023-04-01T17:26:42;9.10;99.90
44747;DHT22;30472;49.490;10.972;2023-04-01T17:32:03;9.10;99.90
44747;DHT22;30472;49.490;10.972;2023-04-01T17:34:35;9.10;99.90
44747;DHT22;30472;49.490;10.972;2023-04-01T17:45:55;9.10;99.90
44747;DHT22;30472;49.490;10.972;2023-04-01T17:51:20;9.20;99.90
44747;DHT22;30472;49.490;10.972;2023-04-01T17:54:04;9.20;99.90
44747;DHT22;30472;49.490;10.972;2023-04-01T17:56:41;9.20;99.90
44747;DHT22;30472;49.490;10.972;2023-04-01T18:02:31;9.20;99.90
44747;DHT22;30472;49.490;10.972;2023-04-01T18:08:10;9.20;99.90
44747;DHT22;30472;49.490;10.972;2023-04-01T18:13:51;9.20;99.90
44747;DHT22;30472;49.490;10.972;2023-04-01T18:16:42;9.20;99.90
44747;DHT22;30472;49.490;10.972;2023-04-01T18:22:47;9.20;99.90
44747;DHT22;30472;49.490;10.972;2023-04-01T18:28:19;9.10;99.90
44747;DHT22;30472;49.490;10.972;2023-04-01T18:36:25;9.10;99.90
44747;DHT22;30472;49.490;10.972;2023-04-01T18:38:56;9.10;99.90
44747;DHT22;30472;49.490;10.972;2023-04-01T18:41:30;9.10;99.90
44747;DHT22;30472;49.490;10.972;2023-04-01T18:49:52;9.00;99.90
44747;DHT22;30472;49.490;10.972;2023-04-01T18:52:35;9.00;99.90
44747;DHT22;30472;49.490;10.972;2023-04-01T19:00:27;9.00;99.90
44747;DHT22;30472;49.490;10.972;2023-04-01T19:03:11;9.00;99.90
44747;DHT22;30472;49.490;10.972;2023-04-01T19:05:40;9.00;99.90
44747;DHT22;30472;49.490;10.972;2023-04-01T19:10:48;9.00;99.90
44747;DHT22;30472;49.490;10.972;2023-04-01T19:13:41;9.00;99.90
44747;DHT22;30472;49.490;10.972;2023-04-01T19:32:45;8.90;99.90
44747;DHT22;30472;49.490;10.972;2023-04-01T19:35:34;9.00;99.90
44747;DHT22;30472;49.490;10.972;2023-04-01T19:51:57;8.90;99.90
44747;DHT22;30472;49.490;10.972;2023-04-01T19:59:51;8.90;99.90
44747;DHT22;30472;49.490;10.972;2023-04-01T20:07:53;9.00;99.90
44747;DHT22;30472;49.490;10.972;2023-04-01T20:10:33;9.00;99.90
44747;DHT22;30472;49.490;10.972;2023-04-01T20:13:20;9.00;99.90
44747;DHT22;30472;49.490;10.972;2023-04-01T20:16:04;9.00;99.90
44747;DHT22;30472;49.490;10.972;2023-04-01T20:18:56;9.00;99.90
44747;DHT22;30472;49.490;10.972;2023-04-01T20:21:46;9.00;99.90
44747;DHT22;30472;49.490;10.972;2023-04-01T20:24:21;9.00;99.90
44747;DHT22;30472;49.490;10.972;2023-04-01T20:32:34;9.10;99.90
44747;DHT22;30472;49.490;10.972;2023-04-01T20:35:13;9.10;99.90
44747;DHT22;30472;49.490;10.972;2023-04-01T20:38:03;9.10;99.90
44747;DHT22;30472;49.490;10.972;2023-04-01T20:40:44;9.10;99.90
44747;DHT22;30472;49.490;10.972;2023-04-01T20:46:11;9.10;99.90
44747;DHT22;30472;49.490;10.972;2023-04-01T20:51:31;9.10;99.90
44747;DHT22;30472;49.490;10.972;2023-04-01T20:56:47;9.10;99.90
44747;DHT22;30472;49.490;10.972;2023-04-01T21:02:36;9.10;99.90
44747;DHT22;30472;49.490;10.972;2023-04-01T21:05:16;9.00;99.90
44747;DHT22;30472;49.490;10.972;2023-04-01T21:13:37;9.00;99.90
44747;DHT22;30472;49.490;10.972;2023-04-01T21:19:09;9.00;99.90
44747;DHT22;30472;49.490;10.972;2023-04-01T21:22:02;8.90;99.90
44747;DHT22;30472;49.490;10.972;2023-04-01T21:25:35;8.90;99.90
44747;DHT22;30472;49.490;10.972;2023-04-01T21:27:44;8.90;99.90
44747;DHT22;30472;49.490;10.972;2023-04-01T21:35:38;8.90;99.90
44747;DHT22;30472;49.490;10.972;2023-04-01T21:41:21;8.90;99.90
44747;DHT22;30472;49.490;10.972;2023-04-01T22:03:19;8.90;99.90
44747;DHT22;30472;49.490;10.972;2023-04-01T22:06:04;8.90;99.90
44747;DHT22;30472;49.490;10.972;2023-04-01T22:14:13;8.90;99.90
44747;DHT22;30472;49.490;10.972;2023-04-01T22:16:53;8.80;99.90
44747;DHT22;30472;49.490;10.972;2023-04-01T22:19:21;8.90;99.90
44747;DHT22;30472;49.490;10.972;2023-04-01T22:22:28;8.80;99.90
44747;DHT22;30472;49.490;10.972;2023-04-01T22:28:05;8.80;99.90
44747;DHT22;30472;49.490;10.972;2023-04-01T22:30:47;8.80;99.90
44747;DHT22;30472;49.490;10.972;2023-04-01T22:36:23;8.80;99.90
44747;DHT22;30472;49.490;10.972;2023-04-01T22:41:45;8.80;99.90
44747;DHT22;30472;49.490;10.972;2023-04-01T22:50:15;8.70;99.90
44747;DHT22;30472;49.490;10.972;2023-04-01T22:52:45;8.70;99.90
44747;DHT22;30472;49.490;10.972;2023-04-01T22:55:28;8.70;99.90
44747;DHT22;30472;49.490;10.972;2023-04-01T22:58:03;8.70;99.90
44747;DHT22;30472;49.490;10.972;2023-04-01T23:00:58;8.70;99.90
44747;DHT22;30472;49.490;10.972;2023-04-01T23:03:33;8.70;99.90
44747;DHT22;30472;49.490;10.972;2023-04-01T23:06:02;8.60;99.90
44747;DHT22;30472;49.490;10.972;2023-04-01T23:11:29;8.60;99.90
44747;DHT22;30472;49.490;10.972;2023-04-01T23:25:18;8.60;99.90
44747;DHT22;30472;49.490;10.972;2023-04-01T23:35:57;8.60;99.90
44747;DHT22;30472;49.490;10.972;2023-04-01T23:38:36;8.60;99.90
44747;DHT22;30472;49.490;10.972;2023-04-01T23:41:02;8.60;99.90
44747;DHT22;30472;49.490;10.972;2023-04-01T23:43:34;8.60;99.90
44747;DHT22;30472;49.490;10.972;2023-04-01T23:46:03;8.60;99.90
44747;DHT22;30472;49.490;10.972;2023-04-01T23:48:35;8.60;99.90
44747;DHT22;30472;49.490;10.972;2023-04-01T23:51:02;8.60;99.90
44747;DHT22;30472;49.490;10.972;2023-04-01T23:53:33;8.60;99.90
44747;DHT22;30472;49.490;10.972;2023-04-01T23:56:02;8.60;99.90
44747;DHT22;30472;49.490;10.972;2023-04-01T23:58:48;8.60;99.90
